地図

経路データ

SID SEASON NUMBER BASIN SUBBASIN NAME ISO_TIME NATURE LAT LON WMO_WIND WMO_PRES WMO_AGENCY TRACK_TYPE DIST2LAND LANDFALL IFLAG USA_AGENCY USA_ATCF_ID USA_LAT USA_LON USA_RECORD USA_STATUS USA_WIND USA_PRES USA_SSHS USA_R34_NE USA_R34_SE USA_R34_SW USA_R34_NW USA_R50_NE USA_R50_SE USA_R50_SW USA_R50_NW USA_R64_NE USA_R64_SE USA_R64_SW USA_R64_NW USA_POCI USA_ROCI USA_RMW USA_EYE TOKYO_LAT TOKYO_LON TOKYO_GRADE TOKYO_WIND TOKYO_PRES TOKYO_R50_DIR TOKYO_R50_LONG TOKYO_R50_SHORT TOKYO_R30_DIR TOKYO_R30_LONG TOKYO_R30_SHORT TOKYO_LAND CMA_LAT CMA_LON CMA_CAT CMA_WIND CMA_PRES HKO_LAT HKO_LON HKO_CAT HKO_WIND HKO_PRES NEWDELHI_LAT NEWDELHI_LON NEWDELHI_GRADE NEWDELHI_WIND NEWDELHI_PRES NEWDELHI_CI NEWDELHI_DP NEWDELHI_POCI REUNION_LAT REUNION_LON REUNION_TYPE REUNION_WIND REUNION_PRES REUNION_TNUM REUNION_CI REUNION_RMW REUNION_R34_NE REUNION_R34_SE REUNION_R34_SW REUNION_R34_NW REUNION_R50_NE REUNION_R50_SE REUNION_R50_SW REUNION_R50_NW REUNION_R64_NE REUNION_R64_SE REUNION_R64_SW REUNION_R64_NW BOM_LAT BOM_LON BOM_TYPE BOM_WIND BOM_PRES BOM_TNUM BOM_CI BOM_RMW BOM_R34_NE BOM_R34_SE BOM_R34_SW BOM_R34_NW BOM_R50_NE BOM_R50_SE BOM_R50_SW BOM_R50_NW BOM_R64_NE BOM_R64_SE BOM_R64_SW BOM_R64_NW BOM_ROCI BOM_POCI BOM_EYE BOM_POS_METHOD BOM_PRES_METHOD NADI_LAT NADI_LON NADI_CAT NADI_WIND NADI_PRES WELLINGTON_LAT WELLINGTON_LON WELLINGTON_WIND WELLINGTON_PRES DS824_LAT DS824_LON DS824_STAGE DS824_WIND DS824_PRES TD9636_LAT TD9636_LON TD9636_STAGE TD9636_WIND TD9636_PRES TD9635_LAT TD9635_LON TD9635_WIND TD9635_PRES TD9635_ROCI NEUMANN_LAT NEUMANN_LON NEUMANN_CLASS NEUMANN_WIND NEUMANN_PRES MLC_LAT MLC_LON MLC_CLASS MLC_WIND MLC_PRES USA_GUST BOM_GUST BOM_GUST_PER REUNION_GUST REUNION_GUST_PER USA_SEAHGT USA_SEARAD_NE USA_SEARAD_SE USA_SEARAD_SW USA_SEARAD_NW STORM_SPEED STORM_DIR
1978178N14260 1978 44 EP MM DANIEL 1978-06-26 18:00:00 TS 13.6000 -100.100 30 hurdat_epa main 342 335 O________OO___ hurdat_epa EP041978 13.6000 -100.100 TD 30 -1 13.6000 -100.100 TC 30 13.6000 -100.100 1 30 10 290
1978178N14260 1978 44 EP MM DANIEL 1978-06-26 21:00:00 TS 13.7695 -100.572 main 338 328 P________PP___ EP041978 13.7678 -100.575 TD 30 -1 13.7678 -100.575 TC 30 13.7764 -100.561 1 30 10 295
1978178N14260 1978 44 EP MM DANIEL 1978-06-27 00:00:00 TS 14.0000 -101.000 30 hurdat_epa main 332 318 O________OO___ hurdat_epa EP041978 14.0000 -101.000 TD 30 -1 14.0000 -101.000 TC 30 14.0000 -101.000 1 30 10 306
1978178N14260 1978 44 EP MM DANIEL 1978-06-27 03:00:00 TS 14.3284 -101.361 main 324 295 P________PP___ EP041978 14.3348 -101.350 TD 32 -1 14.3348 -101.350 TC 32 14.3028 -101.402 1 31 10 315
1978178N14260 1978 44 EP MM DANIEL 1978-06-27 06:00:00 TS 14.6905 -101.717 35 hurdat_epa main 295 274 O________OP___ hurdat_epa EP041978 14.7000 -101.700 TS 35 0 14.7000 -101.700 TC 35 14.6527 -101.786 1 32 10 313
1978178N14260 1978 44 EP MM DANIEL 1978-06-27 09:00:00 TS 15.0242 -102.137 main 278 267 P________PP___ EP041978 15.0299 -102.127 TS 35 0 15.0299 -102.127 TC 35 15.0012 -102.177 1 33 11 306
1978178N14260 1978 44 EP MM DANIEL 1978-06-27 12:00:00 TS 15.3000 -102.600 35 hurdat_epa main 275 272 O________OO___ hurdat_epa EP041978 15.3000 -102.600 TS 35 0 15.3000 -102.600 TC 35 15.3000 -102.600 2 35 10 296
1978178N14260 1978 44 EP MM DANIEL 1978-06-27 15:00:00 TS 15.4804 -103.087 main 281 281 P________PP___ EP041978 15.4799 -103.085 TS 30 -1 15.4799 -103.085 TC 30 15.4826 -103.094 2 33 10 287
1978178N14260 1978 44 EP MM DANIEL 1978-06-27 18:00:00 TS 15.6020 -103.604 25 hurdat_epa main 288 288 O________OP___ hurdat_epa EP041978 15.6000 -103.600 TD 25 -1 15.6000 -103.600 TC 25 15.6101 -103.621 2 32 11 282
1978178N14260 1978 44 EP MM DANIEL 1978-06-27 21:00:00 TS 15.7015 -104.153 main 299 299 P________PP___ EP041978 15.7000 -104.150 TD 27 -1 15.7000 -104.150 TC 27 15.7075 -104.162 2 31 11 281
1978178N14260 1978 44 EP MM DANIEL 1978-06-28 00:00:00 TS 15.8000 -104.700 30 hurdat_epa main 307 307 O________OO___ hurdat_epa EP041978 15.8000 -104.700 TD 30 -1 15.8000 -104.700 TC 30 15.8000 -104.700 1 30 10 284
1978178N14260 1978 44 EP MM DANIEL 1978-06-28 03:00:00 TS 15.9456 -105.207 main 323 314 P________PP___ EP041978 15.9498 -105.207 TD 30 -1 15.9498 -105.207 TC 30 15.9286 -105.207 1 30 10 287
1978178N14260 1978 44 EP MM DANIEL 1978-06-28 06:00:00 TS 16.0914 -105.702 30 hurdat_epa main 339 339 O________OP___ hurdat_epa EP041978 16.1000 -105.700 TD 30 -1 16.1000 -105.700 TC 30 16.0569 -105.708 1 30 10 285
1978178N14260 1978 44 EP MM DANIEL 1978-06-28 09:00:00 TS 16.1963 -106.201 main 366 366 P________PP___ EP041978 16.1999 -106.200 TD 30 -1 16.1999 -106.200 TC 30 16.1818 -106.204 1 30 10 282
1978178N14260 1978 44 EP MM DANIEL 1978-06-28 12:00:00 TS 16.3000 -106.700 30 hurdat_epa main 381 381 O________OO___ hurdat_epa EP041978 16.3000 -106.700 TD 30 -1 16.3000 -106.700 TC 30 16.3000 -106.700 1 30 10 285
1978178N14260 1978 44 EP MM DANIEL 1978-06-28 15:00:00 TS 16.4489 -107.198 main 403 394 P________PP___ EP041978 16.4574 -107.200 TD 42 0 16.4574 -107.200 TC 42 16.4148 -107.192 1 37 10 287
1978178N14260 1978 44 EP MM DANIEL 1978-06-28 18:00:00 TS 16.5844 -107.697 55 hurdat_epa main 422 422 O________OP___ hurdat_epa EP041978 16.6000 -107.700 TS 55 0 16.6000 -107.700 TC 55 16.5218 -107.685 1 45 10 282
1978178N14260 1978 44 EP MM DANIEL 1978-06-28 21:00:00 TS 16.6554 -108.191 main 453 453 P________PP___ EP041978 16.6648 -108.193 TS 57 0 16.6648 -108.193 TC 57 16.6179 -108.186 1 52 10 277
1978178N14260 1978 44 EP MM DANIEL 1978-06-29 00:00:00 TS 16.7000 -108.700 60 hurdat_epa main 491 491 O________OO___ hurdat_epa EP041978 16.7000 -108.700 TS 60 0 16.7000 -108.700 TC 60 16.7000 -108.700 2 60 10 276
1978178N14260 1978 44 EP MM DANIEL 1978-06-29 03:00:00 TS 16.7544 -109.243 main 524 524 P________PP___ EP041978 16.7499 -109.243 TS 60 0 16.7499 -109.243 TC 60 16.7724 -109.244 2 60 11 276
1978178N14260 1978 44 EP MM DANIEL 1978-06-29 06:00:00 TS 16.8060 -109.800 60 hurdat_epa main 575 575 O________OP___ hurdat_epa EP041978 16.8000 -109.800 TS 60 0 16.8000 -109.800 TC 60 16.8299 -109.800 2 60 11 276
1978178N14260 1978 44 EP MM DANIEL 1978-06-29 09:00:00 TS 16.8604 -110.357 main 622 622 P________PP___ EP041978 16.8574 -110.357 TS 60 0 16.8574 -110.357 TC 60 16.8724 -110.356 2 60 11 275
1978178N14260 1978 44 EP MM DANIEL 1978-06-29 12:00:00 TS 16.9000 -110.900 60 hurdat_epa main 666 666 O________OO___ hurdat_epa EP041978 16.9000 -110.900 TS 60 0 16.9000 -110.900 TC 60 16.9000 -110.900 2 60 10 273
1978178N14260 1978 44 EP MM DANIEL 1978-06-29 15:00:00 TS 16.9094 -111.407 main 686 686 P________PP___ EP041978 16.9073 -111.408 TS 62 0 16.9073 -111.408 TC 62 16.9177 -111.402 2 62 10 270
1978178N14260 1978 44 EP MM DANIEL 1978-06-29 18:00:00 TS 16.9043 -111.899 65 hurdat_epa main 699 699 O________OP___ hurdat_epa EP041978 16.9000 -111.900 HU 65 1 16.9000 -111.900 TC 65 16.9214 -111.893 2 65 9 270
1978178N14260 1978 44 EP MM DANIEL 1978-06-29 21:00:00 TS 16.9088 -112.391 main 716 716 P________PP___ EP041978 16.9073 -112.392 HU 67 1 16.9073 -112.392 TC 67 16.9145 -112.387 2 67 10 270
1978178N14260 1978 44 EP MM DANIEL 1978-06-30 00:00:00 TS 16.9000 -112.900 70 hurdat_epa main 736 736 O________OO___ hurdat_epa EP041978 16.9000 -112.900 HU 70 1 16.9000 -112.900 TC 70 16.9000 -112.900 4 70 10 267
1978178N14260 1978 44 EP MM DANIEL 1978-06-30 03:00:00 TS 16.8562 -113.435 main 759 759 P________PP___ EP041978 16.8498 -113.435 HU 75 1 16.8498 -113.435 TC 75 16.8816 -113.433 4 77 11 265
1978178N14260 1978 44 EP MM DANIEL 1978-06-30 06:00:00 TS 16.8113 -113.998 80 hurdat_epa main 800 800 O________OP___ hurdat_epa EP041978 16.8000 -114.000 HU 80 1 16.8000 -114.000 TC 80 16.8565 -113.990 4 85 11 267
1978178N14260 1978 44 EP MM DANIEL 1978-06-30 09:00:00 TS 16.8055 -114.577 main 834 834 P________PP___ EP041978 16.7997 -114.577 HU 90 2 16.7997 -114.577 TC 90 16.8283 -114.577 4 92 12 269
1978178N14260 1978 44 EP MM DANIEL 1978-06-30 12:00:00 TS 16.8000 -115.200 100 hurdat_epa main 872 872 O________OO___ hurdat_epa EP041978 16.8000 -115.200 HU 100 3 16.8000 -115.200 TC 100 16.8000 -115.200 4 100 12 268
1978178N14260 1978 44 EP MM DANIEL 1978-06-30 15:00:00 TS 16.7540 -115.877 main 919 919 P________PP___ EP041978 16.7499 -115.885 HU 100 3 16.7499 -115.885 TC 100 16.7703 -115.844 4 100 13 266
1978178N14260 1978 44 EP MM DANIEL 1978-06-30 18:00:00 TS 16.7083 -116.585 100 hurdat_epa main 978 978 O________OP___ hurdat_epa EP041978 16.7000 -116.600 HU 100 3 16.7000 -116.600 TC 100 16.7415 -116.525 4 100 13 268
1978178N14260 1978 44 EP MM DANIEL 1978-06-30 21:00:00 TS 16.6970 -117.271 main 1031 1031 P________PP___ EP041978 16.6920 -117.277 HU 100 3 16.6920 -117.277 TC 100 16.7169 -117.244 4 100 14 270
1978178N14260 1978 44 EP MM DANIEL 1978-07-01 00:00:00 TS 16.7000 -118.000 100 hurdat_epa main 1084 1084 O________OO___ hurdat_epa EP041978 16.7000 -118.000 HU 100 3 16.7000 -118.000 TC 100 16.7000 -118.000 4 100 15 270
1978178N14260 1978 44 EP MM DANIEL 1978-07-01 03:00:00 TS 16.6993 -118.825 main 1133 1133 P________PP___ EP041978 16.7000 -118.835 HU 100 3 16.7000 -118.835 TC 100 16.6964 -118.785 4 100 16 270
1978178N14260 1978 44 EP MM DANIEL 1978-07-01 06:00:00 TS 16.6999 -119.681 100 hurdat_epa main 1193 1193 O________OP___ hurdat_epa EP041978 16.7000 -119.700 HU 100 3 16.7000 -119.700 TC 100 16.6994 -119.605 4 100 16 270
1978178N14260 1978 44 EP MM DANIEL 1978-07-01 09:00:00 TS 16.7001 -120.489 main 1249 1249 P________PP___ EP041978 16.6995 -120.500 HU 100 3 16.6995 -120.500 TC 100 16.7025 -120.447 4 100 16 270
1978178N14260 1978 44 EP MM DANIEL 1978-07-01 12:00:00 TS 16.7000 -121.300 100 hurdat_epa main 1308 1308 O________OO___ hurdat_epa EP041978 16.7000 -121.300 HU 100 3 16.7000 -121.300 TC 100 16.7000 -121.300 4 100 16 270
1978178N14260 1978 44 EP MM DANIEL 1978-07-01 15:00:00 TS 16.7021 -122.143 main 1370 1370 P________PP___ EP041978 16.7072 -122.142 HU 95 2 16.7072 -122.142 TC 95 16.6814 -122.147 4 97 16 270
1978178N14260 1978 44 EP MM DANIEL 1978-07-01 18:00:00 TS 16.6913 -123.000 90 hurdat_epa main 1441 1441 O________OP___ hurdat_epa EP041978 16.7000 -123.000 HU 90 2 16.7000 -123.000 TC 90 16.6565 -123.000 4 95 16 268
1978178N14260 1978 44 EP MM DANIEL 1978-07-01 21:00:00 TS 16.6515 -123.857 main 1515 1515 P________PP___ EP041978 16.6572 -123.858 HU 90 2 16.6572 -123.858 TC 90 16.6283 -123.853 4 92 16 267
1978178N14260 1978 44 EP MM DANIEL 1978-07-02 00:00:00 TS 16.6000 -124.700 90 hurdat_epa main 1589 1589 O________OO___ hurdat_epa EP041978 16.6000 -124.700 HU 90 2 16.6000 -124.700 TC 90 16.6000 -124.700 4 90 16 266
1978178N14260 1978 44 EP MM DANIEL 1978-07-02 03:00:00 TS 16.5426 -125.503 main 1652 1652 P________PP___ EP041978 16.5420 -125.500 HU 85 2 16.5420 -125.500 TC 85 16.5450 -125.517 4 83 15 266
1978178N14260 1978 44 EP MM DANIEL 1978-07-02 06:00:00 TS 16.4991 -126.306 80 hurdat_epa main 1707 1707 O________OP___ hurdat_epa EP041978 16.5000 -126.300 HU 80 1 16.5000 -126.300 TC 80 16.4953 -126.329 4 77 16 267
1978178N14260 1978 44 EP MM DANIEL 1978-07-02 09:00:00 TS 16.4704 -127.144 main 1764 1764 P________PP___ EP041978 16.4697 -127.143 HU 72 1 16.4697 -127.143 TC 72 16.4730 -127.152 4 71 16 270
1978178N14260 1978 44 EP MM DANIEL 1978-07-02 12:00:00 TS 16.5000 -128.000 65 hurdat_epa main 1830 1830 O________OO___ hurdat_epa EP041978 16.5000 -128.000 HU 65 1 16.5000 -128.000 TC 65 16.5000 -128.000 4 65 16 275
1978178N14260 1978 44 EP MM DANIEL 1978-07-02 15:00:00 TS 16.6245 -128.838 main 1883 1883 P________PP___ EP041978 16.6269 -128.827 HU 55 0 16.6269 -128.827 TC 55 16.6148 -128.879 4 60 17 280
1978178N14260 1978 44 EP MM DANIEL 1978-07-02 18:00:00 TS 16.7952 -129.718 45 hurdat_epa main 1938 1938 O________OP___ hurdat_epa EP041978 16.8000 -129.700 TS 45 0 16.8000 -129.700 TC 45 16.7758 -129.789 4 55 18 281
1978178N14260 1978 44 EP MM DANIEL 1978-07-02 21:00:00 TS 16.9556 -130.688 main 2005 2005 P________PP___ EP041978 16.9573 -130.678 TS 45 0 16.9573 -130.678 TC 45 16.9489 -130.729 4 50 19 279
1978178N14260 1978 44 EP MM DANIEL 1978-07-03 00:00:00 TS 17.1000 -131.700 45 hurdat_epa main 2081 2081 O________OO___ hurdat_epa EP041978 17.1000 -131.700 TS 45 0 17.1000 -131.700 TC 45 17.1000 -131.700 2 45 19 278
1978178N14260 1978 44 EP MM DANIEL 1978-07-03 03:00:00 TS 17.2181 -132.694 main 2160 2160 P________PP___ EP041978 17.2219 -132.692 TS 40 0 17.2219 -132.692 TC 40 17.2028 -132.699 2 41 19 276
1978178N14260 1978 44 EP MM DANIEL 1978-07-03 06:00:00 TS 17.2940 -133.703 35 hurdat_epa main 2238 2132 O________OP___ hurdat_epa EP041978 17.3000 -133.700 TS 35 0 17.3000 -133.700 TC 35 17.2620 -133.721 2 37 20 274
1978178N14260 1978 44 EP MM DANIEL 1978-07-03 09:00:00 TS 17.3719 -134.750 main 2121 2029 P________PP___ EP041978 17.3822 -134.749 TS 32 -1 17.3822 -134.749 TC 32 17.2901 -134.757 2 33 20 270
1978178N14260 1978 44 EP MM DANIEL 1978-07-03 12:00:00 TS 17.3000 -135.800 30 hurdat_epa main 2018 1920 O________OO___ hurdat_epa EP041978 17.3000 -135.800 TD 30 -1 17.3000 -135.800 TC 30 17.3000 -135.800 1 30 20 258
1978178N14260 1978 44 EP MM DANIEL 1978-07-03 15:00:00 TS 16.9358 -136.814 main 1922 1838 P________P____ EP041978 16.9358 -136.814 TD 25 -1 16.9358 -136.814 TC 25 1 21 245
1978178N14260 1978 44 EP MM DANIEL 1978-07-03 18:00:00 TS 16.4000 -137.800 20 hurdat_epa main 1830 O________O____ hurdat_epa EP041978 16.4000 -137.800 TD 20 -1 16.4000 -137.800 TC 20 1 22 240

IBTrACS Databaseについて

本データベースは、米国NOAAが公開する1842年以降の世界の熱帯低気圧のベストトラックデータアーカイブInternational Best Track Archive for Climate Stewardship (IBTrACS)を、ウェブで閲覧しやすい形式に変換したものです。

最終更新日:2021-11-26